createdAt,value
2022-08-22T00:02:15.929Z,67.04
2022-08-22T00:02:46.132Z,72.77
2022-08-22T00:02:48.934Z,72.66
2022-08-22T00:03:03.866Z,76.04
2022-08-22T00:03:04.982Z,73.29
2022-08-22T00:04:42.261Z,67.13
2022-08-22T00:07:08.624Z,67.09
2022-08-22T00:09:35.018Z,67.13
2022-08-22T00:12:01.381Z,67.13
2022-08-22T00:14:27.773Z,66.95
2022-08-22T00:16:54.132Z,66.91
2022-08-22T00:19:20.606Z,67.05
2022-08-22T00:21:46.973Z,67.22
2022-08-22T00:24:13.354Z,67.00
2022-08-22T00:26:43.396Z,66.81
2022-08-22T00:29:06.138Z,67.33
2022-08-22T00:31:32.519Z,67.88
2022-08-22T00:33:58.883Z,68.23
2022-08-22T00:36:25.329Z,68.17
2022-08-22T00:38:51.761Z,68.66
2022-08-22T00:41:18.149Z,68.92
2022-08-22T00:43:44.512Z,69.21
2022-08-22T00:46:10.959Z,68.99
2022-08-22T00:48:37.333Z,69.22
2022-08-22T00:51:03.723Z,69.10
2022-08-22T00:53:30.161Z,68.96
2022-08-22T00:55:56.581Z,69.00
2022-08-22T00:58:22.955Z,68.71
2022-08-22T01:00:49.432Z,68.56
2022-08-22T01:03:15.722Z,68.82
2022-08-22T01:05:42.116Z,69.27
2022-08-22T01:08:08.540Z,69.95
2022-08-22T01:10:34.983Z,70.49
2022-08-22T01:13:01.352Z,70.95
2022-08-22T01:15:27.746Z,71.05
2022-08-22T01:17:54.148Z,71.29
2022-08-22T01:20:20.612Z,70.90
2022-08-22T01:22:46.973Z,70.46
2022-08-22T01:25:13.374Z,70.39
2022-08-22T01:27:39.808Z,70.14
2022-08-22T01:30:06.243Z,70.58
2022-08-22T01:32:32.673Z,71.02
2022-08-22T01:34:59.042Z,71.49
2022-08-22T01:37:25.571Z,71.82
2022-08-22T01:39:51.979Z,72.25
2022-08-22T01:42:18.298Z,72.54
2022-08-22T01:44:44.712Z,72.30
2022-08-22T01:47:11.102Z,72.32
2022-08-22T01:49:37.498Z,72.52
2022-08-22T01:52:03.922Z,72.79
2022-08-22T01:54:30.307Z,73.21
2022-08-22T01:56:56.663Z,73.56
2022-08-22T01:59:23.136Z,73.65
2022-08-22T02:01:49.491Z,73.79
2022-08-22T02:04:15.887Z,73.66
2022-08-22T02:06:42.250Z,73.67
2022-08-22T02:09:08.620Z,73.78
2022-08-22T02:11:35.028Z,73.99
2022-08-22T02:14:01.418Z,74.45
2022-08-22T02:16:27.775Z,74.41
2022-08-22T02:18:54.143Z,74.29
2022-08-22T02:21:20.620Z,74.06
2022-08-22T02:23:46.985Z,73.80
2022-08-22T02:26:13.348Z,73.24
2022-08-22T02:28:40.513Z,72.48
2022-08-22T02:31:06.113Z,71.86
2022-08-22T02:33:32.543Z,71.71
2022-08-22T02:35:58.910Z,71.42
2022-08-22T02:38:25.292Z,70.90
2022-08-22T02:40:51.652Z,70.39
2022-08-22T02:43:18.054Z,70.07
2022-08-22T02:45:44.437Z,69.75
2022-08-22T02:48:10.804Z,69.40
2022-08-22T02:50:37.244Z,68.89
2022-08-22T02:53:03.636Z,68.87
2022-08-22T02:55:30.068Z,68.93
2022-08-22T02:57:56.494Z,69.05
2022-08-22T03:00:30.748Z,69.15
2022-08-22T03:02:49.264Z,69.29
2022-08-22T03:05:15.649Z,69.52
2022-08-22T03:07:42.019Z,69.92
2022-08-22T03:10:08.441Z,70.31
2022-08-22T03:12:34.811Z,70.85
2022-08-22T03:15:01.176Z,70.99
2022-08-22T03:17:27.582Z,71.27
2022-08-22T03:19:53.988Z,71.05
2022-08-22T03:22:20.366Z,70.64
2022-08-22T03:24:46.730Z,70.54
2022-08-22T03:27:13.184Z,70.54
2022-08-22T03:29:39.546Z,70.33
2022-08-22T03:32:05.949Z,70.17
2022-08-22T03:34:32.317Z,70.32
2022-08-22T03:36:58.726Z,70.67
2022-08-22T03:39:25.097Z,71.16
2022-08-22T03:41:51.458Z,71.93
2022-08-22T03:44:17.864Z,72.08
2022-08-22T03:46:44.246Z,72.34
2022-08-22T03:49:10.628Z,72.39
2022-08-22T03:51:37.105Z,72.50
2022-08-22T03:54:03.542Z,72.52
2022-08-22T03:56:29.973Z,72.66
2022-08-22T03:58:56.399Z,72.77
2022-08-22T04:01:22.778Z,73.04
2022-08-22T04:03:49.151Z,73.78
2022-08-22T04:06:15.604Z,74.44
2022-08-22T04:08:43.927Z,74.64
2022-08-22T04:11:08.466Z,74.88
2022-08-22T04:13:34.840Z,75.18
2022-08-22T04:16:01.226Z,75.25
2022-08-22T04:18:27.668Z,75.39
2022-08-22T04:20:54.098Z,75.59
2022-08-22T04:23:20.462Z,75.35
2022-08-22T04:25:46.827Z,75.68
2022-08-22T04:28:13.297Z,76.07
2022-08-22T04:30:39.677Z,76.32
2022-08-22T04:33:06.060Z,76.25
2022-08-22T04:35:32.425Z,76.35
2022-08-22T04:37:58.905Z,76.85
2022-08-22T04:40:25.317Z,76.70
2022-08-22T04:42:51.700Z,76.78
2022-08-22T04:45:18.097Z,78.36
2022-08-22T04:47:46.030Z,80.02
2022-08-22T04:50:10.827Z,77.50
2022-08-22T04:52:37.320Z,77.58
2022-08-22T04:55:03.697Z,78.96
2022-08-22T04:57:30.065Z,78.99
2022-08-22T04:59:56.489Z,79.69
2022-08-22T05:02:22.941Z,81.03
2022-08-22T05:04:49.299Z,81.62
2022-08-22T05:07:15.713Z,82.54
2022-08-22T05:09:42.139Z,82.51
2022-08-22T05:12:08.572Z,81.17
2022-08-22T05:14:34.936Z,77.85
2022-08-22T05:17:01.445Z,75.38
2022-08-22T05:19:31.899Z,74.59
2022-08-22T05:21:54.189Z,77.83
2022-08-22T05:24:20.646Z,79.34
2022-08-22T05:26:47.015Z,80.41
2022-08-22T05:29:13.445Z,77.86
2022-08-22T05:31:39.813Z,78.45
2022-08-22T05:34:06.262Z,77.62
2022-08-22T05:36:32.639Z,78.96
2022-08-22T05:38:58.998Z,79.80
2022-08-22T05:41:25.370Z,79.93
2022-08-22T05:43:51.752Z,80.99
2022-08-22T05:46:18.182Z,80.77
2022-08-22T05:48:44.566Z,80.63
2022-08-22T05:51:10.930Z,78.03
2022-08-22T05:53:37.299Z,78.09
2022-08-22T05:56:03.674Z,77.68
2022-08-22T05:58:30.095Z,74.99
2022-08-22T06:00:56.523Z,76.81
2022-08-22T06:03:22.883Z,76.21
2022-08-22T06:05:49.384Z,75.48
2022-08-22T06:08:15.747Z,73.72
2022-08-22T06:10:42.114Z,71.70
2022-08-22T06:13:11.583Z,72.69
2022-08-22T06:15:35.019Z,72.16
2022-08-22T06:18:01.406Z,69.49
2022-08-22T06:20:28.782Z,70.31
2022-08-22T06:22:54.149Z,70.56
2022-08-22T06:25:20.549Z,69.05
2022-08-22T06:27:46.936Z,69.62
2022-08-22T06:30:13.415Z,69.07
2022-08-22T06:32:59.036Z,68.14
2022-08-22T06:35:06.296Z,68.03
2022-08-22T06:37:32.661Z,66.15
2022-08-22T06:39:59.113Z,66.63
2022-08-22T06:42:25.472Z,66.58
2022-08-22T06:44:51.846Z,69.29
2022-08-22T06:47:18.241Z,69.12
2022-08-22T06:49:44.675Z,69.67
2022-08-22T06:52:11.079Z,70.86
2022-08-22T06:54:37.446Z,69.99
2022-08-22T06:57:03.829Z,70.32
2022-08-22T06:59:30.303Z,70.13
2022-08-22T07:01:56.742Z,70.22
2022-08-22T07:04:23.041Z,70.82
2022-08-22T07:06:49.491Z,70.93
2022-08-22T07:09:15.884Z,70.83
2022-08-22T07:11:42.264Z,70.42
2022-08-22T07:14:08.636Z,69.40
2022-08-22T07:16:35.011Z,69.42
2022-08-22T07:19:01.457Z,69.96
2022-08-22T07:21:27.842Z,70.85
2022-08-22T07:23:54.212Z,71.89
2022-08-22T07:26:20.587Z,72.30
2022-08-22T07:28:51.341Z,72.29
2022-08-22T07:31:13.460Z,72.11
2022-08-22T07:33:39.852Z,70.09
2022-08-22T07:36:06.247Z,68.64
2022-08-22T07:38:32.638Z,69.56
2022-08-22T07:40:59.047Z,69.88
2022-08-22T07:43:25.483Z,68.48
2022-08-22T07:45:51.906Z,66.33
2022-08-22T07:48:25.612Z,65.22
2022-08-22T07:50:44.703Z,64.62
2022-08-22T07:53:11.133Z,62.81
2022-08-22T07:55:48.487Z,62.82
2022-08-22T07:58:04.215Z,61.82
2022-08-22T08:00:30.298Z,61.06
2022-08-22T08:02:56.799Z,58.79
2022-08-22T08:05:23.163Z,58.68
2022-08-22T08:07:49.534Z,56.45
2022-08-22T08:10:15.941Z,56.03
2022-08-22T08:12:42.329Z,56.07
2022-08-22T08:15:08.695Z,53.55
2022-08-22T08:17:35.136Z,53.71
2022-08-22T08:20:01.500Z,55.13
2022-08-22T08:22:28.005Z,55.05
2022-08-22T08:24:54.434Z,55.02
2022-08-22T08:27:20.883Z,55.46
2022-08-22T08:29:47.291Z,55.80
2022-08-22T08:32:13.652Z,56.81
2022-08-22T08:34:40.033Z,56.78
2022-08-22T08:37:06.408Z,56.54
2022-08-22T08:39:35.523Z,56.58
2022-08-22T08:41:59.253Z,55.08
2022-08-22T08:44:25.615Z,55.48
2022-08-22T08:46:55.865Z,54.82
2022-08-22T08:49:21.031Z,53.51
2022-08-22T08:51:44.795Z,52.30
2022-08-22T08:54:11.178Z,53.89
2022-08-22T08:56:37.551Z,53.31
2022-08-22T08:59:03.917Z,53.97
2022-08-22T09:01:30.343Z,53.53
2022-08-22T09:03:56.686Z,51.73
2022-08-22T09:06:23.058Z,50.47
2022-08-22T09:08:53.840Z,51.04
2022-08-22T09:11:15.894Z,51.54
2022-08-22T09:13:42.283Z,50.81
2022-08-22T09:16:10.030Z,50.56
2022-08-22T09:18:35.088Z,48.90
2022-08-22T09:21:01.847Z,48.53
2022-08-22T09:23:28.408Z,49.23
2022-08-22T09:25:54.786Z,48.60
2022-08-22T09:28:21.156Z,47.60
2022-08-22T09:30:47.574Z,47.93
2022-08-22T09:33:13.931Z,46.91
2022-08-22T09:35:40.299Z,45.49
2022-08-22T09:38:06.707Z,46.17
2022-08-22T09:40:33.101Z,46.49
2022-08-22T09:42:59.926Z,45.57
2022-08-22T09:45:26.688Z,45.71
2022-08-22T09:47:53.375Z,45.40
2022-08-22T09:50:20.116Z,45.54
2022-08-22T09:52:46.879Z,44.89
2022-08-22T09:55:16.023Z,44.56
2022-08-22T09:57:39.635Z,44.86
2022-08-22T10:00:06.413Z,43.90
2022-08-22T10:02:33.300Z,43.59
2022-08-22T10:04:59.622Z,43.98
2022-08-22T10:07:26.015Z,44.62
2022-08-22T10:09:54.977Z,43.82
2022-08-22T10:12:18.843Z,43.95
2022-08-22T10:14:50.539Z,43.44
2022-08-22T10:17:11.684Z,43.27
2022-08-22T10:19:38.244Z,43.35
2022-08-22T10:22:04.471Z,43.44
2022-08-22T10:24:30.912Z,44.09
2022-08-22T10:26:57.280Z,43.58
2022-08-22T10:29:23.676Z,43.79
2022-08-22T10:31:58.901Z,43.66
2022-08-22T10:34:16.458Z,43.14
2022-08-22T10:36:42.850Z,43.00
2022-08-22T10:39:11.613Z,42.67
2022-08-22T10:41:35.621Z,42.39
2022-08-22T10:44:04.178Z,41.78
2022-08-22T10:46:28.357Z,42.00
2022-08-22T10:48:54.791Z,42.22
2022-08-22T10:51:21.149Z,42.96
2022-08-22T10:53:47.565Z,42.87
2022-08-22T10:56:13.975Z,42.71
2022-08-22T10:58:40.361Z,42.74
2022-08-22T11:01:37.185Z,42.74
2022-08-22T11:03:33.167Z,42.55
2022-08-22T11:05:59.518Z,40.97
2022-08-22T11:08:25.952Z,40.96
2022-08-22T11:10:52.351Z,40.73
2022-08-22T11:13:18.724Z,40.85
2022-08-22T11:15:45.157Z,41.67
2022-08-22T11:18:13.050Z,42.38
2022-08-22T11:20:37.895Z,42.73
2022-08-22T11:23:04.290Z,42.39
2022-08-22T11:25:35.789Z,42.32
2022-08-22T11:27:57.115Z,42.67
2022-08-22T11:30:23.480Z,43.12
2022-08-22T11:32:50.707Z,43.41
2022-08-22T11:35:16.256Z,43.51
2022-08-22T11:37:43.664Z,43.71
2022-08-22T11:40:09.046Z,43.76
2022-08-22T11:42:35.416Z,43.87
2022-08-22T11:45:01.841Z,44.38
2022-08-22T11:47:28.943Z,45.05
2022-08-22T11:49:54.583Z,45.04
2022-08-22T11:52:21.039Z,44.97
2022-08-22T11:54:47.402Z,45.43
2022-08-22T11:57:13.774Z,45.54
2022-08-22T11:59:40.290Z,45.68
2022-08-22T12:02:08.778Z,45.54
2022-08-22T12:04:32.990Z,45.40
2022-08-22T12:06:59.448Z,45.37
2022-08-22T12:09:25.845Z,44.22
2022-08-22T12:11:52.210Z,43.94
2022-08-22T12:14:18.595Z,43.67
2022-08-22T12:16:45.089Z,43.78
2022-08-22T12:19:11.485Z,43.95
2022-08-22T12:21:38.479Z,44.04
2022-08-22T12:24:06.122Z,44.45
2022-08-22T12:26:30.657Z,44.71
2022-08-22T12:28:57.034Z,43.63
2022-08-22T12:31:23.413Z,42.91
2022-08-22T12:33:50.425Z,43.38
2022-08-22T12:36:18.267Z,43.39
2022-08-22T12:38:42.610Z,43.45
2022-08-22T12:41:08.999Z,43.09
2022-08-22T12:43:35.381Z,43.80
2022-08-22T12:46:01.846Z,43.69
2022-08-22T12:48:28.244Z,44.34
2022-08-22T12:50:54.723Z,44.74
2022-08-22T12:53:21.104Z,44.69
2022-08-22T12:55:47.585Z,44.79
2022-08-22T12:58:13.941Z,44.65
2022-08-22T13:00:41.630Z,44.82
2022-08-22T13:03:07.057Z,44.99
2022-08-22T13:05:40.508Z,45.31
2022-08-22T13:08:04.104Z,45.97
2022-08-22T13:10:26.383Z,46.22
2022-08-22T13:12:52.815Z,46.65
2022-08-22T13:15:19.222Z,46.69
2022-08-22T13:17:45.610Z,46.78
2022-08-22T13:20:11.982Z,47.04
2022-08-22T13:22:38.876Z,47.25
2022-08-22T13:25:05.055Z,46.21
2022-08-22T13:27:31.238Z,46.93
2022-08-22T13:29:57.651Z,46.31
2022-08-22T13:32:24.027Z,46.29
2022-08-22T13:34:50.417Z,46.91
2022-08-22T13:37:16.782Z,47.42
2022-08-22T13:39:43.169Z,48.11
2022-08-22T13:42:30.144Z,48.21
2022-08-22T13:44:37.616Z,48.35
2022-08-22T13:47:13.719Z,48.43
2022-08-22T13:49:30.482Z,48.56
2022-08-22T13:51:56.872Z,49.15
2022-08-22T13:54:23.231Z,51.20
2022-08-22T13:56:50.554Z,53.06
2022-08-22T13:59:29.282Z,53.24
2022-08-22T19:09:38.815Z,80.89
2022-08-22T19:12:05.644Z,81.16
2022-08-22T19:14:32.082Z,81.45
2022-08-22T19:16:58.539Z,81.57
2022-08-22T19:19:25.035Z,81.65
2022-08-22T19:21:51.546Z,81.73
2022-08-22T19:24:18.028Z,81.84
2022-08-22T19:26:44.556Z,81.95
2022-08-22T19:29:11.037Z,82.02
2022-08-22T19:31:38.471Z,82.14
2022-08-22T19:34:04.953Z,82.29
2022-08-22T19:36:31.386Z,82.31
2022-08-22T19:38:57.981Z,82.36
2022-08-22T19:41:24.469Z,82.68
2022-08-22T19:43:51.048Z,82.90
2022-08-22T19:46:17.433Z,83.49
2022-08-22T19:48:43.885Z,83.85
2022-08-22T19:51:10.471Z,84.19
2022-08-22T19:53:36.798Z,84.03
2022-08-22T19:56:03.166Z,84.16
2022-08-22T19:58:32.928Z,84.43
2022-08-22T20:00:56.093Z,84.94
2022-08-22T20:03:22.650Z,84.67
2022-08-22T20:05:56.892Z,85.13
2022-08-22T20:08:15.387Z,85.60
2022-08-22T20:10:41.795Z,86.02
2022-08-22T20:13:08.315Z,85.69
2022-08-22T20:15:34.722Z,85.50
2022-08-22T20:20:35.143Z,85.54
2022-08-22T20:22:53.983Z,85.64
2022-08-22T20:25:42.899Z,85.90
2022-08-22T20:27:46.821Z,85.79
2022-08-22T20:30:13.226Z,85.77
2022-08-22T20:32:39.601Z,85.70
2022-08-22T20:35:06.081Z,85.43
2022-08-22T20:37:56.137Z,86.13
2022-08-22T20:39:59.058Z,86.64
2022-08-22T20:42:25.214Z,86.49
2022-08-22T20:44:53.675Z,86.44
2022-08-22T20:47:21.226Z,86.04
2022-08-22T20:49:44.415Z,85.58
